createdAt,value
2023-04-02T00:10:27.965Z,3
2023-04-02T00:39:21.153Z,3
2023-04-02T01:08:17.317Z,4
2023-04-02T01:36:37.721Z,3
2023-04-02T02:05:22.398Z,3
2023-04-02T02:33:45.195Z,4
2023-04-02T03:02:14.166Z,4
2023-04-02T03:30:58.459Z,1
2023-04-02T03:59:43.037Z,3
2023-04-02T04:28:09.856Z,3
2023-04-02T04:57:01.898Z,4
2023-04-02T05:25:42.244Z,4
2023-04-02T05:54:34.517Z,3
2023-04-02T06:23:15.604Z,3
2023-04-02T06:51:48.617Z,3
2023-04-02T07:20:38.264Z,3
2023-04-02T07:49:17.008Z,3
2023-04-02T08:18:05.012Z,3
2023-04-02T08:46:50.954Z,3
2023-04-02T09:15:27.394Z,3
2023-04-02T09:44:17.093Z,3
2023-04-02T10:12:52.753Z,1
2023-04-02T10:41:28.956Z,1
2023-04-02T11:10:00.558Z,4
2023-04-02T11:38:41.080Z,1
2023-04-02T12:07:33.110Z,3
2023-04-02T12:36:20.034Z,5
2023-04-02T13:04:50.044Z,1
2023-04-02T13:33:45.853Z,3
2023-04-02T14:02:22.501Z,8
2023-04-02T14:30:58.553Z,1
2023-04-02T14:59:17.137Z,2
2023-04-02T15:27:41.149Z,7
2023-04-02T15:56:21.019Z,13
2023-04-02T16:24:55.331Z,11
2023-04-02T16:53:18.919Z,10
2023-04-02T17:21:58.956Z,13
2023-04-02T17:50:20.977Z,7
2023-04-02T18:18:54.305Z,16
2023-04-02T18:47:19.756Z,14
2023-04-02T19:16:04.426Z,12
2023-04-02T19:44:24.607Z,16
2023-04-02T20:13:06.983Z,16
2023-04-02T20:41:22.821Z,13
2023-04-02T21:09:48.197Z,9
2023-04-02T21:38:38.536Z,10
2023-04-02T22:07:08.381Z,11
2023-04-02T22:35:49.746Z,11
2023-04-02T23:04:32.460Z,10
2023-04-02T23:32:55.556Z,9
